Pagina principale
METAR-TAF:

METAR-TAF

Aeroporti :

Aeroporto Internazionale di Hurghada

Hurghada, Egitto

latitudine: 27-09N, longitudine: 033-43E, altezza: 16 m

Osservazione

Il bollettino è stato emesso 1 ora e 57 minuti fa, alle 01:00 UTC
Vento 9 kt da ovest
Temperature 27°C
Umidità 39%
Pressione 1009 hPa
Visibilità 10 km o più
nessuna nube inferiore a 1500 m e nessun cumulonembo

METAR: HEGN 160100Z 27009KT CAVOK 27/12 Q1009 NOSIG

Ora: 04:57 (02:57 UTC)

Previsione

Il bollettino è stato emesso 3 ore e 57 minuti fa, alle 23:00 UTC
Previsione valida dal 16 alle 00 UTC al 17 alle 06 UTC
Vento 10 kt da nord-ovest
Visibilità 10 km o più
nessuna nube inferiore a 1500 m e nessun cumulonembo

TAF: HEGN 152300Z 1600/1706 31010KT CAVOK

Osservazioni e previsioni meteorologiche di più di 4000 aeroporti (messaggi METAR e TAF).

Le stazioni disponibili sono rappresentate dai dischi gialli e rossi sulla carta.

Puntare il mouse per vedere il nome della stazione.

Clicca sopra per visualizzare le osservazioni e previsioni meteorologiche.

Per cambiare la mappa : fare clic sui pulsanti verdi con una croce nera per ingrandire, il pulsante verde con un trattino per diminuire, o sulla freccia verde per le mappe adiacenti.


METAR-TAF: